BTK7536 WAHI-WIHH
Flight info
| Callsign | BTK7536 |
|---|---|
| Flight time | 0h 43m |
| Altitude | 34000 |
| Route | CA W17S IMU |
| Aircraft | A320/M-SDE3FGHIRWY/LB1 |
Departure
| Time | 2026-04-28 06:00 |
|---|---|
| Airport | Yogyakarta International Airport (WAHI) |
Arrival
| Time | 2026-04-28 06:43 |
|---|---|
| Airport | Halim Perdanakusuma International Airport (WIHH) |
| Time | Latitude | Longitude | Altitude | Speed | Heading |
|---|---|---|---|---|---|
| 2026-04-28 05:35 | -7.90075 | 110.05795 | 38 ft | 0 kts | 20° |
| 2026-04-28 05:47 | -7.90092 | 110.05789 | 38 ft | 3 kts | 20° |
| 2026-04-28 05:47 | -7.90111 | 110.05782 | 38 ft | 3 kts | 20° |
| 2026-04-28 05:48 | -7.90131 | 110.05775 | 38 ft | 3 kts | 20° |
| 2026-04-28 05:48 | -7.90149 | 110.05767 | 38 ft | 2 kts | 18° |
| 2026-04-28 05:48 | -7.90161 | 110.05764 | 38 ft | 1 kts | 352° |
| 2026-04-28 05:48 | -7.90169 | 110.05766 | 38 ft | 1 kts | 326° |
| 2026-04-28 05:49 | -7.90176 | 110.05770 | 37 ft | 1 kts | 309° |
| 2026-04-28 05:49 | -7.90181 | 110.05777 | 38 ft | 1 kts | 299° |
| 2026-04-28 05:49 | -7.90185 | 110.05784 | 38 ft | 1 kts | 294° |
| 2026-04-28 05:49 | -7.90188 | 110.05789 | 38 ft | 0 kts | 291° |
| 2026-04-28 05:51 | -7.90178 | 110.05763 | 37 ft | 10 kts | 289° |
| 2026-04-28 05:51 | -7.90156 | 110.05700 | 38 ft | 11 kts | 290° |
| 2026-04-28 05:51 | -7.90125 | 110.05618 | 38 ft | 12 kts | 290° |
| 2026-04-28 05:52 | -7.90097 | 110.05542 | 36 ft | 11 kts | 290° |
| 2026-04-28 05:52 | -7.90072 | 110.05475 | 38 ft | 10 kts | 290° |
| 2026-04-28 05:52 | -7.90061 | 110.05445 | 36 ft | 0 kts | 291° |
| 2026-04-28 05:54 | -7.90057 | 110.05434 | 38 ft | 3 kts | 291° |
| 2026-04-28 05:54 | -7.90048 | 110.05412 | 36 ft | 4 kts | 291° |
| 2026-04-28 05:54 | -7.90011 | 110.05332 | 38 ft | 25 kts | 300° |
| 2026-04-28 05:55 | -7.89965 | 110.05205 | 36 ft | 7 kts | 280° |
| 2026-04-28 05:55 | -7.89975 | 110.05159 | 36 ft | 10 kts | 234° |
| 2026-04-28 05:55 | -7.90062 | 110.05118 | 33 ft | 17 kts | 199° |
| 2026-04-28 05:55 | -7.90102 | 110.05049 | 30 ft | 9 kts | 281° |
| 2026-04-28 05:56 | -7.90085 | 110.04997 | 31 ft | 7 kts | 290° |
| 2026-04-28 05:56 | -7.90071 | 110.04959 | 31 ft | 5 kts | 291° |
| 2026-04-28 05:56 | -7.90061 | 110.04932 | 31 ft | 3 kts | 291° |
| 2026-04-28 05:56 | -7.90053 | 110.04913 | 29 ft | 2 kts | 291° |
| 2026-04-28 05:57 | -7.90031 | 110.04854 | 31 ft | 20 kts | 291° |
| 2026-04-28 05:57 | -7.89965 | 110.04678 | 34 ft | 29 kts | 291° |
| 2026-04-28 05:57 | -7.89889 | 110.04486 | 32 ft | 28 kts | 291° |
| 2026-04-28 05:57 | -7.89850 | 110.04345 | 32 ft | 18 kts | 264° |
| 2026-04-28 05:58 | -7.89916 | 110.04317 | 33 ft | 11 kts | 163° |
| 2026-04-28 05:58 | -7.89987 | 110.04342 | 34 ft | 10 kts | 149° |
| 2026-04-28 05:58 | -7.90037 | 110.04370 | 35 ft | 7 kts | 123° |
| 2026-04-28 05:58 | -7.90053 | 110.04406 | 35 ft | 5 kts | 115° |
| 2026-04-28 05:59 | -7.90066 | 110.04436 | 35 ft | 5 kts | 113° |
| 2026-04-28 05:59 | -7.90127 | 110.04604 | 29 ft | 62 kts | 110° |
| 2026-04-28 05:59 | -7.90356 | 110.05232 | 31 ft | 126 kts | 110° |
| 2026-04-28 05:59 | -7.90720 | 110.06227 | 95 ft | 170 kts | 111° |
| 2026-04-28 06:00 | -7.91116 | 110.07343 | 683 ft | 173 kts | 110° |
| 2026-04-28 06:00 | -7.91501 | 110.08497 | 1431 ft | 178 kts | 109° |
| 2026-04-28 06:00 | -7.91895 | 110.09777 | 1778 ft | 200 kts | 103° |
| 2026-04-28 06:00 | -7.91776 | 110.11220 | 2040 ft | 224 kts | 69° |
| 2026-04-28 06:01 | -7.90770 | 110.12505 | 2407 ft | 247 kts | 35° |
| 2026-04-28 06:01 | -7.89145 | 110.13107 | 3098 ft | 255 kts | 4° |
| 2026-04-28 06:01 | -7.87374 | 110.12962 | 3846 ft | 258 kts | 353° |
| 2026-04-28 06:01 | -7.85555 | 110.12854 | 4581 ft | 266 kts | 353° |
| 2026-04-28 06:02 | -7.83805 | 110.12217 | 5312 ft | 273 kts | 324° |
| 2026-04-28 06:02 | -7.82504 | 110.10825 | 6050 ft | 278 kts | 297° |
| 2026-04-28 06:02 | -7.81954 | 110.08961 | 6781 ft | 281 kts | 270° |
| 2026-04-28 06:02 | -7.82040 | 110.06976 | 7497 ft | 288 kts | 269° |
| 2026-04-28 06:03 | -7.81549 | 110.05008 | 8192 ft | 297 kts | 300° |
| 2026-04-28 06:03 | -7.80133 | 110.03480 | 8995 ft | 301 kts | 320° |
| 2026-04-28 06:03 | -7.78446 | 110.02210 | 9810 ft | 304 kts | 324° |
| 2026-04-28 06:03 | -7.76689 | 110.00965 | 10363 ft | 318 kts | 324° |
| 2026-04-28 06:04 | -7.74838 | 109.99610 | 10570 ft | 341 kts | 323° |
| 2026-04-28 06:04 | -7.72907 | 109.98105 | 10903 ft | 357 kts | 321° |
| 2026-04-28 06:04 | -7.70966 | 109.96506 | 11519 ft | 363 kts | 320° |
| 2026-04-28 06:04 | -7.69025 | 109.94847 | 12186 ft | 367 kts | 319° |
| 2026-04-28 06:05 | -7.67085 | 109.93154 | 12833 ft | 371 kts | 319° |
| 2026-04-28 06:05 | -7.65130 | 109.91434 | 13474 ft | 375 kts | 319° |
| 2026-04-28 06:05 | -7.63153 | 109.89697 | 14082 ft | 379 kts | 319° |
| 2026-04-28 06:05 | -7.61158 | 109.87949 | 14666 ft | 383 kts | 319° |
| 2026-04-28 06:06 | -7.59134 | 109.86182 | 15249 ft | 386 kts | 319° |
| 2026-04-28 06:06 | -7.57085 | 109.84403 | 15797 ft | 390 kts | 319° |
| 2026-04-28 06:06 | -7.55016 | 109.82611 | 16320 ft | 394 kts | 319° |
| 2026-04-28 06:06 | -7.52912 | 109.80837 | 16872 ft | 396 kts | 324° |
| 2026-04-28 06:07 | -7.50569 | 109.79368 | 17391 ft | 399 kts | 332° |
| 2026-04-28 06:07 | -7.48139 | 109.77994 | 17900 ft | 402 kts | 329° |
| 2026-04-28 06:07 | -7.45882 | 109.76303 | 18387 ft | 407 kts | 318° |
| 2026-04-28 06:07 | -7.43969 | 109.74186 | 18797 ft | 412 kts | 306° |
| 2026-04-28 06:08 | -7.42415 | 109.71751 | 19262 ft | 414 kts | 302° |
| 2026-04-28 06:08 | -7.40893 | 109.69280 | 19739 ft | 416 kts | 302° |
| 2026-04-28 06:08 | -7.39351 | 109.66803 | 20260 ft | 418 kts | 302° |
| 2026-04-28 06:08 | -7.37795 | 109.64324 | 20750 ft | 420 kts | 302° |
| 2026-04-28 06:09 | -7.36227 | 109.61833 | 21205 ft | 422 kts | 302° |
| 2026-04-28 06:09 | -7.34656 | 109.59328 | 21645 ft | 425 kts | 302° |
| 2026-04-28 06:09 | -7.33074 | 109.56802 | 22049 ft | 427 kts | 302° |
| 2026-04-28 06:09 | -7.31482 | 109.54266 | 22453 ft | 430 kts | 302° |
| 2026-04-28 06:10 | -7.29879 | 109.51712 | 22855 ft | 432 kts | 302° |
| 2026-04-28 06:10 | -7.28277 | 109.49149 | 23254 ft | 434 kts | 302° |
| 2026-04-28 06:10 | -7.26664 | 109.46566 | 23632 ft | 437 kts | 302° |
| 2026-04-28 06:10 | -7.25042 | 109.43968 | 23998 ft | 439 kts | 302° |
| 2026-04-28 06:11 | -7.23408 | 109.41355 | 24291 ft | 443 kts | 302° |
| 2026-04-28 06:11 | -7.21781 | 109.38761 | 24569 ft | 446 kts | 302° |
| 2026-04-28 06:11 | -7.20100 | 109.36079 | 24909 ft | 448 kts | 302° |
| 2026-04-28 06:11 | -7.18457 | 109.33455 | 25204 ft | 450 kts | 302° |
| 2026-04-28 06:12 | -7.16759 | 109.30746 | 25510 ft | 452 kts | 302° |
| 2026-04-28 06:12 | -7.15100 | 109.28095 | 25817 ft | 454 kts | 302° |
| 2026-04-28 06:12 | -7.13412 | 109.25396 | 26070 ft | 457 kts | 302° |
| 2026-04-28 06:12 | -7.11717 | 109.22687 | 26373 ft | 458 kts | 302° |
| 2026-04-28 06:13 | -7.10016 | 109.19970 | 26664 ft | 460 kts | 302° |
| 2026-04-28 06:13 | -7.08305 | 109.17239 | 26941 ft | 462 kts | 302° |
| 2026-04-28 06:13 | -7.06582 | 109.14500 | 27229 ft | 464 kts | 302° |
| 2026-04-28 06:13 | -7.04852 | 109.11753 | 27540 ft | 465 kts | 302° |
| 2026-04-28 06:14 | -7.03118 | 109.09003 | 27842 ft | 467 kts | 303° |
| 2026-04-28 06:14 | -7.01376 | 109.06234 | 28130 ft | 469 kts | 303° |
| 2026-04-28 06:14 | -6.99632 | 109.03461 | 28406 ft | 470 kts | 303° |
| 2026-04-28 06:14 | -6.97880 | 109.00669 | 28677 ft | 472 kts | 303° |
| 2026-04-28 06:15 | -6.96122 | 108.97865 | 28922 ft | 475 kts | 303° |
| 2026-04-28 06:15 | -6.94356 | 108.95049 | 29165 ft | 476 kts | 303° |
| 2026-04-28 06:15 | -6.92585 | 108.92227 | 29415 ft | 478 kts | 303° |
| 2026-04-28 06:15 | -6.90810 | 108.89399 | 29660 ft | 480 kts | 303° |
| 2026-04-28 06:16 | -6.89022 | 108.86550 | 29883 ft | 482 kts | 303° |
| 2026-04-28 06:16 | -6.87224 | 108.83687 | 30117 ft | 484 kts | 303° |
| 2026-04-28 06:16 | -6.85425 | 108.80823 | 30351 ft | 486 kts | 303° |
| 2026-04-28 06:16 | -6.83617 | 108.77945 | 30572 ft | 487 kts | 303° |
| 2026-04-28 06:17 | -6.81808 | 108.75069 | 30909 ft | 486 kts | 303° |
| 2026-04-28 06:17 | -6.80005 | 108.72205 | 31291 ft | 483 kts | 303° |
| 2026-04-28 06:17 | -6.78213 | 108.69357 | 31637 ft | 482 kts | 303° |
| 2026-04-28 06:18 | -6.74636 | 108.63676 | 32273 ft | 480 kts | 303° |
| 2026-04-28 06:18 | -6.72852 | 108.60843 | 32575 ft | 479 kts | 303° |
| 2026-04-28 06:18 | -6.70916 | 108.58124 | 32866 ft | 477 kts | 311° |
| 2026-04-28 06:18 | -6.68585 | 108.55761 | 33168 ft | 475 kts | 321° |
| 2026-04-28 06:19 | -6.65926 | 108.53824 | 33454 ft | 473 kts | 330° |
| 2026-04-28 06:19 | -6.63049 | 108.52197 | 33742 ft | 473 kts | 332° |
| 2026-04-28 06:19 | -6.60179 | 108.50593 | 33832 ft | 471 kts | 332° |
| 2026-04-28 06:20 | -6.54479 | 108.47399 | 33838 ft | 468 kts | 332° |
| 2026-04-28 06:20 | -6.49761 | 108.44747 | 33838 ft | 468 kts | 332° |
| 2026-04-28 06:21 | -6.44084 | 108.41559 | 33838 ft | 467 kts | 332° |
| 2026-04-28 06:21 | -6.37445 | 108.37846 | 33838 ft | 467 kts | 332° |
| 2026-04-28 06:22 | -6.33127 | 108.34600 | 33820 ft | 470 kts | 315° |
| 2026-04-28 06:22 | -6.31010 | 108.32081 | 32978 ft | 476 kts | 305° |
| 2026-04-28 06:22 | -6.29402 | 108.29133 | 31728 ft | 487 kts | 292° |
| 2026-04-28 06:22 | -6.28393 | 108.25860 | 30598 ft | 494 kts | 283° |
| 2026-04-28 06:23 | -6.27611 | 108.22503 | 29727 ft | 493 kts | 284° |
| 2026-04-28 06:23 | -6.26795 | 108.19161 | 28911 ft | 491 kts | 284° |
| 2026-04-28 06:23 | -6.25957 | 108.15853 | 28170 ft | 486 kts | 284° |
| 2026-04-28 06:23 | -6.25114 | 108.12579 | 27441 ft | 482 kts | 284° |
| 2026-04-28 06:24 | -6.24278 | 108.09338 | 26648 ft | 478 kts | 284° |
| 2026-04-28 06:24 | -6.23457 | 108.06122 | 26034 ft | 471 kts | 284° |
| 2026-04-28 06:24 | -6.22654 | 108.02944 | 25262 ft | 468 kts | 283° |
| 2026-04-28 06:24 | -6.21869 | 107.99804 | 24686 ft | 460 kts | 283° |
| 2026-04-28 06:25 | -6.21290 | 107.96658 | 24037 ft | 454 kts | 275° |
| 2026-04-28 06:25 | -6.21159 | 107.93547 | 23367 ft | 449 kts | 270° |
| 2026-04-28 06:25 | -6.21088 | 107.90388 | 22749 ft | 444 kts | 270° |
| 2026-04-28 06:25 | -6.21019 | 107.87355 | 22200 ft | 437 kts | 270° |
| 2026-04-28 06:26 | -6.20947 | 107.84280 | 21685 ft | 431 kts | 270° |
| 2026-04-28 06:26 | -6.20879 | 107.81333 | 21175 ft | 425 kts | 270° |
| 2026-04-28 06:26 | -6.20814 | 107.78382 | 20670 ft | 419 kts | 270° |
| 2026-04-28 06:26 | -6.20749 | 107.75470 | 20161 ft | 414 kts | 270° |
| 2026-04-28 06:27 | -6.20685 | 107.72592 | 19646 ft | 410 kts | 270° |
| 2026-04-28 06:27 | -6.20620 | 107.69746 | 19132 ft | 406 kts | 270° |
| 2026-04-28 06:27 | -6.20555 | 107.66919 | 18603 ft | 402 kts | 271° |
| 2026-04-28 06:27 | -6.20490 | 107.64123 | 18079 ft | 400 kts | 271° |
| 2026-04-28 06:28 | -6.20426 | 107.61338 | 17549 ft | 397 kts | 271° |
| 2026-04-28 06:28 | -6.20358 | 107.58569 | 17016 ft | 395 kts | 271° |
| 2026-04-28 06:28 | -6.20289 | 107.55819 | 16487 ft | 393 kts | 271° |
| 2026-04-28 06:28 | -6.20217 | 107.53082 | 15958 ft | 391 kts | 271° |
| 2026-04-28 06:29 | -6.20145 | 107.50357 | 15431 ft | 389 kts | 271° |
| 2026-04-28 06:29 | -6.20077 | 107.47645 | 14908 ft | 387 kts | 270° |
| 2026-04-28 06:29 | -6.20008 | 107.44954 | 14388 ft | 384 kts | 270° |
| 2026-04-28 06:29 | -6.19940 | 107.42277 | 13862 ft | 382 kts | 270° |
| 2026-04-28 06:30 | -6.19872 | 107.39613 | 13338 ft | 380 kts | 270° |
| 2026-04-28 06:30 | -6.19804 | 107.36971 | 12811 ft | 377 kts | 270° |
| 2026-04-28 06:30 | -6.19737 | 107.34350 | 12283 ft | 374 kts | 270° |
| 2026-04-28 06:30 | -6.19705 | 107.31751 | 11743 ft | 370 kts | 266° |
| 2026-04-28 06:31 | -6.20121 | 107.29221 | 11217 ft | 365 kts | 253° |
| 2026-04-28 06:31 | -6.21068 | 107.26878 | 10661 ft | 360 kts | 240° |
| 2026-04-28 06:31 | -6.22370 | 107.24777 | 10427 ft | 348 kts | 236° |
| 2026-04-28 06:31 | -6.23643 | 107.22764 | 10291 ft | 335 kts | 236° |
| 2026-04-28 06:32 | -6.24864 | 107.20824 | 10168 ft | 322 kts | 236° |
| 2026-04-28 06:32 | -6.26040 | 107.18953 | 10040 ft | 311 kts | 236° |
| 2026-04-28 06:32 | -6.27176 | 107.17141 | 9844 ft | 303 kts | 236° |
| 2026-04-28 06:32 | -6.28297 | 107.15358 | 9460 ft | 302 kts | 236° |
| 2026-04-28 06:33 | -6.29416 | 107.13582 | 9079 ft | 300 kts | 236° |
| 2026-04-28 06:33 | -6.30525 | 107.11808 | 8700 ft | 297 kts | 237° |
| 2026-04-28 06:33 | -6.31603 | 107.10059 | 8066 ft | 294 kts | 237° |
| 2026-04-28 06:33 | -6.32664 | 107.08322 | 7487 ft | 289 kts | 237° |
| 2026-04-28 06:34 | -6.33709 | 107.06610 | 7021 ft | 286 kts | 237° |
| 2026-04-28 06:34 | -6.34750 | 107.04907 | 6566 ft | 287 kts | 237° |
| 2026-04-28 06:34 | -6.35795 | 107.03197 | 6125 ft | 286 kts | 237° |
| 2026-04-28 06:34 | -6.36836 | 107.01495 | 5687 ft | 285 kts | 237° |
| 2026-04-28 06:35 | -6.37871 | 106.99803 | 5289 ft | 283 kts | 237° |
| 2026-04-28 06:35 | -6.38879 | 106.98157 | 5161 ft | 270 kts | 237° |
| 2026-04-28 06:35 | -6.39845 | 106.96579 | 4993 ft | 260 kts | 238° |
| 2026-04-28 06:35 | -6.40533 | 106.94927 | 4888 ft | 255 kts | 255° |
| 2026-04-28 06:36 | -6.40878 | 106.93167 | 4832 ft | 257 kts | 258° |
| 2026-04-28 06:36 | -6.41207 | 106.91401 | 4740 ft | 257 kts | 258° |
| 2026-04-28 06:36 | -6.41536 | 106.89637 | 4638 ft | 257 kts | 258° |
| 2026-04-28 06:36 | -6.41863 | 106.87872 | 4531 ft | 256 kts | 258° |
| 2026-04-28 06:37 | -6.42190 | 106.86112 | 4422 ft | 256 kts | 258° |
| 2026-04-28 06:37 | -6.42515 | 106.84359 | 4297 ft | 254 kts | 258° |
| 2026-04-28 06:37 | -6.42831 | 106.82646 | 4188 ft | 243 kts | 257° |
| 2026-04-28 06:37 | -6.43124 | 106.81013 | 4087 ft | 233 kts | 262° |
| 2026-04-28 06:38 | -6.42948 | 106.79430 | 3983 ft | 227 kts | 292° |
| 2026-04-28 06:38 | -6.42045 | 106.78191 | 3797 ft | 226 kts | 321° |
| 2026-04-28 06:38 | -6.40656 | 106.77453 | 3500 ft | 227 kts | 335° |
| 2026-04-28 06:38 | -6.39191 | 106.76799 | 3211 ft | 228 kts | 335° |
| 2026-04-28 06:39 | -6.37767 | 106.76160 | 2935 ft | 228 kts | 335° |
| 2026-04-28 06:39 | -6.36320 | 106.75508 | 2690 ft | 227 kts | 335° |
| 2026-04-28 06:39 | -6.34914 | 106.74874 | 2608 ft | 217 kts | 335° |
| 2026-04-28 06:39 | -6.33504 | 106.74470 | 2514 ft | 207 kts | 4° |
| 2026-04-28 06:40 | -6.32288 | 106.75008 | 2405 ft | 187 kts | 47° |
| 2026-04-28 06:40 | -6.31775 | 106.76144 | 2227 ft | 175 kts | 79° |
| 2026-04-28 06:40 | -6.31494 | 106.77308 | 2054 ft | 168 kts | 73° |
| 2026-04-28 06:40 | -6.31168 | 106.78389 | 1904 ft | 158 kts | 73° |
| 2026-04-28 06:41 | -6.30850 | 106.79423 | 1744 ft | 154 kts | 72° |
| 2026-04-28 06:41 | -6.30537 | 106.80438 | 1609 ft | 152 kts | 72° |
| 2026-04-28 06:41 | -6.30215 | 106.81446 | 1462 ft | 151 kts | 68° |
| 2026-04-28 06:41 | -6.29767 | 106.82389 | 1263 ft | 148 kts | 65° |
| 2026-04-28 06:42 | -6.29327 | 106.83332 | 1059 ft | 148 kts | 65° |
| 2026-04-28 06:42 | -6.28897 | 106.84274 | 839 ft | 148 kts | 68° |
| 2026-04-28 06:42 | -6.28460 | 106.85212 | 660 ft | 149 kts | 66° |
| 2026-04-28 06:42 | -6.28030 | 106.86159 | 488 ft | 149 kts | 69° |
| 2026-04-28 06:43 | -6.27592 | 106.87108 | 307 ft | 150 kts | 66° |
| 2026-04-28 06:43 | -6.27156 | 106.88047 | 108 ft | 147 kts | 65° |
| 2026-04-28 06:43 | -6.26753 | 106.88907 | 98 ft | 122 kts | 67° |
| 2026-04-28 06:43 | -6.26526 | 106.89406 | 95 ft | 42 kts | 65° |
| 2026-04-28 06:44 | -6.26460 | 106.89571 | 95 ft | 17 kts | 94° |
| 2026-04-28 06:44 | -6.26535 | 106.89629 | 95 ft | 9 kts | 155° |
| 2026-04-28 06:44 | -6.26570 | 106.89645 | 97 ft | 5 kts | 156° |
| 2026-04-28 06:44 | -6.26599 | 106.89645 | 97 ft | 4 kts | 205° |
| 2026-04-28 06:45 | -6.26617 | 106.89620 | 95 ft | 8 kts | 244° |
| 2026-04-28 06:45 | -6.26645 | 106.89560 | 97 ft | 9 kts | 245° |
| 2026-04-28 06:45 | -6.26669 | 106.89507 | 95 ft | 8 kts | 245° |
| 2026-04-28 06:45 | -6.26693 | 106.89457 | 95 ft | 9 kts | 245° |
| 2026-04-28 06:46 | -6.26718 | 106.89404 | 96 ft | 8 kts | 245° |
| 2026-04-28 06:46 | -6.26728 | 106.89335 | 96 ft | 11 kts | 301° |
| 2026-04-28 06:46 | -6.26657 | 106.89298 | 97 ft | 12 kts | 336° |
| 2026-04-28 06:46 | -6.26584 | 106.89255 | 98 ft | 12 kts | 310° |
| 2026-04-28 06:47 | -6.26554 | 106.89181 | 96 ft | 11 kts | 291° |
| 2026-04-28 06:47 | -6.26529 | 106.89109 | 95 ft | 11 kts | 289° |
| 2026-04-28 06:47 | -6.26505 | 106.89043 | 96 ft | 10 kts | 290° |
| 2026-04-28 06:47 | -6.26507 | 106.88965 | 96 ft | 15 kts | 244° |
| 2026-04-28 06:48 | -6.26550 | 106.88873 | 95 ft | 14 kts | 245° |
| 2026-04-28 06:48 | -6.26589 | 106.88791 | 97 ft | 12 kts | 244° |
| 2026-04-28 06:48 | -6.26623 | 106.88717 | 95 ft | 11 kts | 245° |
| 2026-04-28 06:48 | -6.26654 | 106.88651 | 95 ft | 10 kts | 245° |
| 2026-04-28 06:49 | -6.26675 | 106.88604 | 95 ft | 6 kts | 246° |
| 2026-04-28 06:49 | -6.26660 | 106.88583 | 95 ft | 4 kts | 347° |
| 2026-04-28 06:49 | -6.26640 | 106.88576 | 95 ft | 3 kts | 336° |
| 2026-04-28 06:49 | -6.26628 | 106.88570 | 95 ft | 0 kts | 335° |